Time;durP1;ratioP1;P1;durP2;ratioP2;P2;SDS_P1;SDS_P2;PMS_P1;PMS_P2;Temp;Humidity;BMP_temperature;BMP_pressure;BME280_temperature;BME280_humidity;BME280_pressure;Samples;Min_cycle;Max_cycle;Signal;HPM_P1;HPM_P2
2023/05/31 00:00:41;;;;;;;8.48;4.88;;;17.40;72.70;;;;;;5053430;28;20033;-47
2023/05/31 00:03:27;;;;;;;8.57;3.88;;;17.20;73.70;;;;;;5054172;28;20037;-47
2023/05/31 00:06:13;;;;;;;6.45;4.10;;;17.10;73.20;;;;;;5053991;28;20075;-47
2023/05/31 00:08:59;;;;;;;6.13;4.18;;;16.90;73.60;;;;;;5039790;28;20470;-47
2023/05/31 00:11:45;;;;;;;9.23;3.80;;;17.00;73.60;;;;;;5036757;28;20069;-48
2023/05/31 00:14:31;;;;;;;5.18;3.90;;;17.00;74.70;;;;;;5035102;28;20065;-46
2023/05/31 00:17:17;;;;;;;9.55;6.68;;;16.90;74.20;;;;;;5035022;28;20026;-46
2023/05/31 00:20:03;;;;;;;8.00;4.57;;;17.00;73.70;;;;;;5035443;28;20023;-48
2023/05/31 00:22:49;;;;;;;7.20;4.10;;;16.90;73.90;;;;;;5034558;28;20036;-48
2023/05/31 00:25:35;;;;;;;6.32;3.85;;;16.80;74.20;;;;;;5034685;28;20036;-46
2023/05/31 00:28:21;;;;;;;6.03;4.28;;;16.70;74.60;;;;;;5034409;28;20034;-48
2023/05/31 00:31:07;;;;;;;7.85;4.35;;;16.70;74.70;;;;;;5033966;28;20033;-48
2023/05/31 00:33:53;;;;;;;6.60;3.83;;;16.70;74.90;;;;;;5035061;28;20454;-52
2023/05/31 00:36:39;;;;;;;5.85;3.72;;;16.70;74.90;;;;;;5014393;28;20511;-48
2023/05/31 00:39:25;;;;;;;8.68;4.43;;;16.70;75.10;;;;;;5015227;28;20064;-51
2023/05/31 00:42:11;;;;;;;10.00;4.25;;;16.70;75.20;;;;;;5021002;28;20513;-49
2023/05/31 00:44:57;;;;;;;8.65;4.18;;;16.70;75.30;;;;;;5034598;28;20033;-49
2023/05/31 00:47:43;;;;;;;7.25;4.18;;;16.70;75.50;;;;;;5048677;28;20481;-49
2023/05/31 00:50:30;;;;;;;9.88;4.10;;;16.60;75.70;;;;;;5053614;28;20135;-48
2023/05/31 00:53:18;;;;;;;8.30;3.80;;;16.50;76.10;;;;;;5046152;28;20029;-50
2023/05/31 00:56:04;;;;;;;8.02;4.07;;;16.60;75.90;;;;;;5034723;28;20021;-48
2023/05/31 00:58:52;;;;;;;7.10;4.00;;;16.50;76.20;;;;;;5034114;28;20098;-50
2023/05/31 01:01:38;;;;;;;5.05;3.47;;;16.50;76.30;;;;;;5034147;28;20029;-51
2023/05/31 01:04:25;;;;;;;8.32;3.72;;;16.40;76.50;;;;;;5052039;28;20043;-49
2023/05/31 01:07:11;;;;;;;5.05;3.65;;;16.40;76.70;;;;;;5052972;28;20036;-51
2023/05/31 01:09:57;;;;;;;7.45;4.22;;;16.40;76.50;;;;;;5052055;28;20025;-50
2023/05/31 01:13:04;;;;;;;7.70;3.88;;;16.50;76.50;;;;;;5052023;28;20061;-51
2023/05/31 01:15:59;;;;;;;6.60;3.80;;;16.50;77.00;;;;;;5052603;28;20017;-48
2023/05/31 01:18:54;;;;;;;4.80;3.88;;;16.50;77.00;;;;;;5050577;28;20025;-48
2023/05/31 01:21:42;;;;;;;7.15;4.18;;;16.50;77.10;;;;;;5053605;28;20029;-48
2023/05/31 01:24:41;;;;;;;7.38;4.30;;;16.50;76.90;;;;;;5053380;28;20024;-48
2023/05/31 01:27:28;;;;;;;5.78;3.83;;;16.50;77.20;;;;;;5052177;28;20623;-48
2023/05/31 01:30:16;;;;;;;7.60;4.22;;;16.50;77.00;;;;;;5052682;28;20021;-47
2023/05/31 01:33:09;;;;;;;9.35;4.20;;;16.50;77.20;;;;;;5052817;28;20030;-50
2023/05/31 01:35:55;;;;;;;5.18;3.80;;;16.50;77.20;;;;;;5051532;28;20033;-45
2023/05/31 01:38:41;;;;;;;6.28;3.80;;;16.50;77.20;;;;;;5051047;28;20028;-48
2023/05/31 01:41:28;;;;;;;6.70;3.80;;;16.60;77.30;;;;;;5052018;28;20025;-45
2023/05/31 01:44:18;;;;;;;6.88;3.90;;;16.60;77.10;;;;;;5051797;28;20040;-48
2023/05/31 01:47:05;;;;;;;6.97;4.20;;;16.50;77.40;;;;;;5052021;28;20099;-48
2023/05/31 01:49:52;;;;;;;5.60;3.38;;;16.50;77.40;;;;;;5039185;28;20034;-53
2023/05/31 01:52:38;;;;;;;7.90;3.78;;;16.50;77.70;;;;;;5045738;28;20037;-51
2023/05/31 01:55:24;;;;;;;6.45;4.00;;;16.50;77.60;;;;;;5051416;28;20443;-51
2023/05/31 01:58:12;;;;;;;6.47;4.25;;;16.50;77.40;;;;;;5052195;28;20036;-53
2023/05/31 02:00:58;;;;;;;6.45;4.00;;;16.40;77.80;;;;;;5048961;28;20033;-52
2023/05/31 02:03:44;;;;;;;6.53;3.92;;;16.30;78.40;;;;;;5051140;28;20053;-49
2023/05/31 02:06:35;;;;;;;9.30;4.55;;;16.20;78.50;;;;;;5051456;28;20509;-49
2023/05/31 02:09:21;;;;;;;5.38;3.47;;;16.20;79.10;;;;;;5050878;28;20120;-50
2023/05/31 02:12:07;;;;;;;6.35;4.15;;;16.20;79.20;;;;;;5052487;28;20033;-48
2023/05/31 02:14:53;;;;;;;6.97;4.20;;;16.20;79.20;;;;;;5052270;28;20030;-49
2023/05/31 02:17:42;;;;;;;7.72;3.90;;;16.10;79.30;;;;;;5051677;28;20037;-50
2023/05/31 02:20:28;;;;;;;7.07;4.03;;;15.90;80.20;;;;;;5052656;28;20083;-53
2023/05/31 02:23:14;;;;;;;10.48;4.65;;;15.80;80.60;;;;;;5047641;28;20037;-50
2023/05/31 02:26:00;;;;;;;5.32;3.90;;;15.60;81.00;;;;;;5036272;28;20076;-50
2023/05/31 02:28:46;;;;;;;9.13;4.55;;;15.50;81.50;;;;;;5032569;28;20044;-52
2023/05/31 02:31:33;;;;;;;7.93;4.30;;;15.50;81.80;;;;;;5031528;28;20147;-53
2023/05/31 02:34:19;;;;;;;7.35;3.85;;;15.40;81.70;;;;;;5032998;28;20167;-50
2023/05/31 02:37:05;;;;;;;7.47;4.55;;;15.30;82.30;;;;;;5032094;28;20064;-50
2023/05/31 02:39:53;;;;;;;10.02;4.70;;;15.20;83.50;;;;;;5032571;28;20097;-50
2023/05/31 02:42:40;;;;;;;9.50;5.35;;;15.10;83.20;;;;;;5048775;28;20112;-53
2023/05/31 02:45:26;;;;;;;9.88;4.85;;;15.00;83.70;;;;;;5050972;28;20036;-53
2023/05/31 02:48:12;;;;;;;13.27;6.88;;;15.00;83.90;;;;;;5052478;28;20033;-53
2023/05/31 02:50:59;;;;;;;9.75;5.15;;;14.90;83.90;;;;;;5051922;28;20033;-51
2023/05/31 02:53:45;;;;;;;10.45;5.95;;;15.00;84.00;;;;;;5048742;28;20037;-50
2023/05/31 02:56:31;;;;;;;7.18;4.78;;;14.90;84.70;;;;;;5051293;28;20074;-48
2023/05/31 02:59:17;;;;;;;6.95;4.50;;;14.80;84.80;;;;;;5050989;28;20033;-49
2023/05/31 03:02:03;;;;;;;8.73;4.80;;;14.80;85.30;;;;;;5051464;28;20035;-50
2023/05/31 03:04:51;;;;;;;6.15;4.20;;;14.70;85.60;;;;;;5050611;28;20025;-49
2023/05/31 03:07:37;;;;;;;6.10;4.20;;;14.70;85.20;;;;;;5034715;28;20021;-49
2023/05/31 03:10:23;;;;;;;7.07;4.13;;;14.80;85.00;;;;;;5032481;28;20518;-48
2023/05/31 03:13:09;;;;;;;6.10;4.10;;;14.70;85.40;;;;;;5036197;28;20029;-47
2023/05/31 03:15:55;;;;;;;9.38;4.25;;;14.70;85.20;;;;;;5036544;28;20029;-47
2023/05/31 03:18:42;;;;;;;6.72;4.57;;;14.60;85.00;;;;;;5036736;28;20076;-49
2023/05/31 03:21:27;;;;;;;8.63;4.30;;;14.50;85.20;;;;;;5044252;28;20025;-48
2023/05/31 03:24:13;;;;;;;7.95;4.47;;;14.40;86.50;;;;;;5056561;28;20032;-47
2023/05/31 03:27:00;;;;;;;16.02;5.45;;;14.40;86.70;;;;;;5056124;28;20044;-50
2023/05/31 03:29:46;;;;;;;8.95;4.35;;;14.50;86.40;;;;;;5055072;28;20052;-53
2023/05/31 03:32:32;;;;;;;9.00;4.60;;;14.60;86.20;;;;;;5054575;28;20029;-50
2023/05/31 03:35:18;;;;;;;5.57;3.95;;;14.60;86.90;;;;;;5041934;28;20026;-50
2023/05/31 03:38:04;;;;;;;7.30;4.45;;;14.60;86.40;;;;;;5035643;28;20056;-49
2023/05/31 03:40:50;;;;;;;7.13;4.57;;;14.60;86.20;;;;;;5035273;28;20064;-50
2023/05/31 03:43:36;;;;;;;7.55;3.85;;;14.60;86.50;;;;;;5044438;28;20390;-51
2023/05/31 03:46:22;;;;;;;6.47;4.25;;;14.60;86.90;;;;;;5054031;28;20029;-51
2023/05/31 03:49:08;;;;;;;7.32;4.40;;;14.80;86.20;;;;;;5042499;28;20038;-52
2023/05/31 03:51:54;;;;;;;8.52;4.53;;;14.90;85.00;;;;;;5035296;28;20045;-50
2023/05/31 03:54:40;;;;;;;9.43;4.80;;;14.80;85.80;;;;;;5035372;28;20080;-50
2023/05/31 03:57:26;;;;;;;7.57;4.88;;;14.70;85.00;;;;;;5034719;28;20033;-50
2023/05/31 04:00:12;;;;;;;9.25;4.88;;;14.70;85.80;;;;;;5035283;28;20026;-49
2023/05/31 04:02:59;;;;;;;7.35;4.80;;;14.70;85.50;;;;;;5035808;28;20026;-54
2023/05/31 04:05:45;;;;;;;11.25;4.90;;;14.60;86.00;;;;;;5036279;28;20034;-51
2023/05/31 04:08:31;;;;;;;9.32;4.80;;;14.50;86.20;;;;;;5034698;28;20116;-50
2023/05/31 04:11:17;;;;;;;8.18;4.75;;;14.50;86.50;;;;;;5035027;28;20020;-50
2023/05/31 04:14:03;;;;;;;12.07;5.10;;;14.60;86.40;;;;;;5035054;28;20026;-48
2023/05/31 04:16:49;;;;;;;10.65;5.40;;;14.40;87.10;;;;;;5034912;28;20553;-47
2023/05/31 04:19:35;;;;;;;9.60;5.30;;;14.30;87.80;;;;;;5035253;28;20046;-48
2023/05/31 04:22:22;;;;;;;11.75;4.85;;;14.30;87.70;;;;;;5036046;28;20030;-49
2023/05/31 04:25:12;;;;;;;9.07;5.13;;;14.40;88.10;;;;;;5034867;28;20048;-47
2023/05/31 04:27:58;;;;;;;11.75;5.03;;;14.50;87.60;;;;;;5034501;28;20029;-49
2023/05/31 04:30:45;;;;;;;12.30;5.88;;;14.70;87.30;;;;;;5035047;28;20104;-46
2023/05/31 04:33:31;;;;;;;9.52;5.57;;;14.80;86.90;;;;;;5034552;28;20037;-47
2023/05/31 04:36:18;;;;;;;13.25;5.88;;;14.80;87.30;;;;;;5034422;28;20026;-47
2023/05/31 04:39:09;;;;;;;13.50;5.00;;;14.70;87.30;;;;;;5049096;28;20502;-45
2023/05/31 04:41:55;;;;;;;12.02;5.72;;;14.80;87.30;;;;;;5054003;28;20512;-50
2023/05/31 04:44:41;;;;;;;13.18;7.35;;;14.70;88.00;;;;;;5054928;28;20087;-46
2023/05/31 04:47:30;;;;;;;10.98;5.70;;;14.70;88.30;;;;;;5052671;28;20033;-45
2023/05/31 04:50:16;;;;;;;11.15;4.65;;;14.80;88.00;;;;;;5043324;28;20065;-48
2023/05/31 04:53:03;;;;;;;7.80;5.75;;;14.80;87.70;;;;;;5032669;28;20501;-46
2023/05/31 04:55:49;;;;;;;10.00;5.30;;;14.70;87.90;;;;;;5034256;28;20040;-45
2023/05/31 04:58:35;;;;;;;9.20;4.93;;;14.60;88.20;;;;;;5033074;28;20096;-46
2023/05/31 05:01:21;;;;;;;9.48;5.32;;;14.60;88.60;;;;;;5032792;28;20030;-48
2023/05/31 05:04:07;;;;;;;9.27;5.25;;;14.70;88.40;;;;;;5034367;28;20033;-47
2023/05/31 05:06:53;;;;;;;12.95;5.63;;;14.70;88.20;;;;;;5032840;28;20060;-47
2023/05/31 05:09:39;;;;;;;12.13;7.97;;;14.80;88.30;;;;;;5060917;28;20030;-46
2023/05/31 05:12:24;;;;;;;10.10;5.15;;;14.80;88.10;;;;;;5034711;28;20021;-50
2023/05/31 05:15:10;;;;;;;10.95;5.82;;;15.00;88.00;;;;;;5060532;28;20037;-48
2023/05/31 05:17:56;;;;;;;11.15;5.50;;;14.90;88.10;;;;;;5052955;28;20124;-48
2023/05/31 05:20:42;;;;;;;11.77;5.38;;;14.90;88.20;;;;;;5052403;28;20036;-48
2023/05/31 05:23:28;;;;;;;12.50;6.35;;;15.00;88.20;;;;;;5051843;28;20112;-49
2023/05/31 05:26:15;;;;;;;7.90;4.85;;;15.10;88.00;;;;;;5052409;28;20379;-48
2023/05/31 05:29:01;;;;;;;10.55;5.25;;;15.10;88.10;;;;;;5052995;28;20500;-48
2023/05/31 05:31:48;;;;;;;11.60;5.95;;;15.10;87.60;;;;;;5052811;28;20408;-48
2023/05/31 05:34:35;;;;;;;9.52;4.95;;;15.20;87.80;;;;;;5032298;28;20620;-47
2023/05/31 05:37:20;;;;;;;8.82;5.30;;;15.30;87.30;;;;;;5032640;28;20068;-49
2023/05/31 05:40:07;;;;;;;9.05;4.85;;;15.50;87.10;;;;;;5013738;28;20063;-45
2023/05/31 05:42:54;;;;;;;9.82;5.50;;;15.70;86.90;;;;;;5014970;28;20521;-45
2023/05/31 05:45:40;;;;;;;9.65;5.53;;;15.80;86.50;;;;;;5049090;28;20159;-45
2023/05/31 05:48:26;;;;;;;11.65;5.57;;;15.70;86.20;;;;;;5051648;28;20025;-47
2023/05/31 05:51:11;;;;;;;9.60;5.47;;;15.70;86.50;;;;;;5053976;28;20053;-50
2023/05/31 05:53:57;;;;;;;11.77;5.47;;;15.80;86.10;;;;;;5052053;28;20021;-52
2023/05/31 05:56:43;;;;;;;12.27;6.13;;;15.80;86.50;;;;;;5040740;28;20025;-52
2023/05/31 05:59:29;;;;;;;10.07;5.32;;;15.90;86.10;;;;;;5032068;28;20471;-50
2023/05/31 06:02:15;;;;;;;10.13;5.55;;;15.80;87.00;;;;;;5031620;28;20414;-50
2023/05/31 06:05:01;;;;;;;9.05;5.22;;;15.80;86.80;;;;;;5025724;28;20030;-50
2023/05/31 06:07:47;;;;;;;11.43;5.13;;;16.10;86.70;;;;;;5012862;28;20505;-50
2023/05/31 06:10:33;;;;;;;8.48;5.57;;;16.20;86.70;;;;;;5026426;28;20076;-52
2023/05/31 06:13:19;;;;;;;11.93;5.47;;;16.30;86.30;;;;;;5051388;28;20135;-53
2023/05/31 06:16:05;;;;;;;13.02;6.43;;;16.40;86.80;;;;;;5053281;28;20413;-49
2023/05/31 06:18:51;;;;;;;9.25;5.68;;;16.40;86.10;;;;;;5051268;28;20025;-49
2023/05/31 06:21:37;;;;;;;10.43;5.68;;;16.50;85.70;;;;;;5051124;28;20555;-49
2023/05/31 06:24:23;;;;;;;10.65;6.20;;;16.70;85.50;;;;;;5038290;28;20568;-48
2023/05/31 06:27:12;;;;;;;11.20;5.50;;;16.70;84.80;;;;;;5033355;28;20032;-46
2023/05/31 06:29:58;;;;;;;9.38;5.47;;;16.80;85.20;;;;;;5033932;28;20041;-47
2023/05/31 06:32:44;;;;;;;13.32;5.35;;;16.70;84.50;;;;;;5033024;28;20030;-52
2023/05/31 06:35:30;;;;;;;12.73;4.57;;;16.50;85.30;;;;;;5033386;28;20057;-49
2023/05/31 06:38:16;;;;;;;11.90;5.15;;;16.60;84.90;;;;;;5032101;28;20048;-47
2023/05/31 06:41:02;;;;;;;7.05;5.00;;;16.70;84.30;;;;;;5014421;28;20068;-49
2023/05/31 06:43:48;;;;;;;13.10;5.47;;;16.70;84.80;;;;;;5028251;28;20448;-47
2023/05/31 06:46:34;;;;;;;10.10;5.50;;;16.90;83.70;;;;;;5034709;28;20545;-47
2023/05/31 06:49:20;;;;;;;9.90;4.70;;;16.90;84.10;;;;;;5032640;28;20127;-49
2023/05/31 06:52:06;;;;;;;9.23;4.95;;;17.00;83.10;;;;;;5033861;28;20033;-48
2023/05/31 06:54:52;;;;;;;10.07;5.03;;;17.10;83.50;;;;;;5048691;28;20505;-48
2023/05/31 06:57:38;;;;;;;8.60;5.68;;;17.30;82.90;;;;;;5049434;28;20093;-47
2023/05/31 07:00:24;;;;;;;14.15;5.82;;;17.40;82.80;;;;;;5030394;28;20112;-48
2023/05/31 07:03:13;;;;;;;70.60;24.83;;;17.60;82.20;;;;;;5034665;28;20061;-49
2023/05/31 07:05:59;;;;;;;11.07;5.40;;;17.60;81.50;;;;;;5022317;28;20093;-50
2023/05/31 07:08:46;;;;;;;9.50;4.75;;;17.60;81.70;;;;;;5032993;28;20368;-46
2023/05/31 07:11:32;;;;;;;41.67;36.17;;;17.70;81.60;;;;;;5032859;28;20108;-45
2023/05/31 07:14:18;;;;;;;10.50;8.07;;;17.80;81.80;;;;;;5029617;28;20026;-46
2023/05/31 07:17:04;;;;;;;13.85;5.28;;;18.00;81.20;;;;;;5043294;28;20034;-46
2023/05/31 07:19:50;;;;;;;11.02;4.88;;;18.00;81.50;;;;;;5041096;28;20044;-45
2023/05/31 07:22:37;;;;;;;8.00;4.43;;;18.10;80.80;;;;;;5036069;28;20191;-50
2023/05/31 07:25:23;;;;;;;8.35;4.88;;;18.20;80.40;;;;;;5032542;28;20108;-48
2023/05/31 07:28:10;;;;;;;8.52;4.97;;;18.30;80.70;;;;;;5031735;28;20034;-47
2023/05/31 07:30:56;;;;;;;8.95;5.10;;;18.20;81.30;;;;;;5031008;28;20033;-51
2023/05/31 07:33:42;;;;;;;9.77;5.13;;;18.40;80.80;;;;;;5037497;28;20132;-47
2023/05/31 07:36:28;;;;;;;9.63;4.85;;;18.60;79.90;;;;;;5038212;28;20103;-47
2023/05/31 07:39:14;;;;;;;10.43;5.22;;;18.70;79.50;;;;;;5032079;28;20163;-49
2023/05/31 07:42:00;;;;;;;12.18;5.20;;;18.70;79.10;;;;;;5031380;28;20026;-49
2023/05/31 07:44:48;;;;;;;8.40;4.53;;;18.80;78.80;;;;;;5030558;28;20044;-49
2023/05/31 07:47:35;;;;;;;8.98;4.97;;;18.90;78.30;;;;;;5032044;28;20518;-50
2023/05/31 07:50:21;;;;;;;10.18;5.68;;;18.80;78.20;;;;;;5032139;28;20079;-48
2023/05/31 07:53:06;;;;;;;7.50;4.82;;;18.90;78.30;;;;;;5047999;28;20025;-49
2023/05/31 07:55:53;;;;;;;6.38;4.20;;;18.80;78.20;;;;;;5050775;28;20159;-49
2023/05/31 07:58:39;;;;;;;8.95;4.25;;;19.10;79.00;;;;;;5053511;28;20493;-50
2023/05/31 08:01:25;;;;;;;17.13;8.95;;;19.00;78.40;;;;;;5054890;28;20025;-53
2023/05/31 08:04:12;;;;;;;10.00;5.55;;;19.00;77.80;;;;;;5054052;28;20029;-51
2023/05/31 08:06:58;;;;;;;19.63;5.25;;;19.20;77.50;;;;;;5039559;28;20033;-47
2023/05/31 08:09:44;;;;;;;11.13;4.57;;;19.10;77.60;;;;;;5061924;28;20026;-47
2023/05/31 08:12:30;;;;;;;10.13;4.47;;;19.30;77.50;;;;;;5035063;28;20168;-48
2023/05/31 08:15:16;;;;;;;5.82;4.40;;;19.40;77.20;;;;;;5035316;28;20087;-49
2023/05/31 08:18:02;;;;;;;12.45;4.75;;;19.40;77.80;;;;;;5035147;28;20087;-52
2023/05/31 08:20:48;;;;;;;10.38;4.72;;;19.50;77.60;;;;;;5035126;28;20030;-51
2023/05/31 08:23:34;;;;;;;12.98;5.15;;;19.40;77.10;;;;;;5035948;28;20068;-52
2023/05/31 08:26:21;;;;;;;11.02;4.65;;;19.60;77.10;;;;;;5034852;28;20038;-51
2023/05/31 08:29:07;;;;;;;8.50;4.78;;;19.70;76.30;;;;;;5061507;28;20022;-50
2023/05/31 08:31:53;;;;;;;10.50;4.65;;;19.80;76.40;;;;;;5035356;28;20026;-50
2023/05/31 08:34:39;;;;;;;7.85;4.45;;;19.70;76.60;;;;;;5034562;28;20308;-51
2023/05/31 08:37:25;;;;;;;9.95;4.68;;;19.60;76.60;;;;;;5034355;28;20502;-50
2023/05/31 08:40:12;;;;;;;9.25;4.30;;;19.80;77.20;;;;;;5050622;28;20385;-55
2023/05/31 08:43:15;;;;;;;9.30;4.72;;;20.10;76.10;;;;;;5054147;28;20665;-52
2023/05/31 08:46:03;;;;;;;6.88;4.22;;;20.10;75.20;;;;;;5053353;28;20162;-52
2023/05/31 08:49:15;;;;;;;8.57;3.88;;;20.30;74.50;;;;;;5053703;28;20021;-50
2023/05/31 08:52:01;;;;;;;6.60;4.45;;;20.30;74.60;;;;;;5038071;28;20040;-51
2023/05/31 08:54:49;;;;;;;11.75;4.40;;;20.40;74.90;;;;;;5033506;28;20057;-51
2023/05/31 08:57:36;;;;;;;7.20;4.07;;;20.60;74.60;;;;;;5034144;28;20060;-49
2023/05/31 09:00:23;;;;;;;6.55;4.57;;;20.80;74.10;;;;;;5033821;28;20090;-50
2023/05/31 09:03:10;;;;;;;8.25;4.28;;;20.80;73.60;;;;;;5034164;28;20030;-51
2023/05/31 09:05:56;;;;;;;15.32;5.57;;;20.90;73.00;;;;;;5040969;28;20079;-48
2023/05/31 09:08:42;;;;;;;8.48;4.68;;;21.00;73.30;;;;;;5053221;28;20083;-48
2023/05/31 09:11:28;;;;;;;10.95;5.00;;;20.90;74.40;;;;;;5041662;28;20079;-47
2023/05/31 09:14:14;;;;;;;7.82;4.65;;;21.10;73.80;;;;;;5060632;28;20021;-49
2023/05/31 09:17:00;;;;;;;7.82;4.50;;;21.20;74.20;;;;;;5034107;28;20061;-49
2023/05/31 09:19:52;;;;;;;8.68;5.13;;;21.50;73.80;;;;;;5033188;28;20034;-48
2023/05/31 09:22:38;;;;;;;6.28;4.30;;;21.50;73.90;;;;;;5034348;28;20163;-49
2023/05/31 09:25:24;;;;;;;9.20;4.05;;;21.40;73.00;;;;;;5060178;28;20445;-48
2023/05/31 09:28:14;;;;;;;5.65;3.70;;;21.40;73.50;;;;;;5035092;28;20057;-48
2023/05/31 09:31:07;;;;;;;6.60;3.83;;;21.40;72.50;;;;;;5040073;28;20083;-51
2023/05/31 09:33:56;;;;;;;8.88;4.05;;;21.30;71.70;;;;;;5024499;28;20045;-54
2023/05/31 09:36:42;;;;;;;7.53;4.00;;;21.30;71.90;;;;;;5035763;28;20486;-52
2023/05/31 09:39:28;;;;;;;6.78;3.60;;;21.50;71.10;;;;;;5034753;28;20037;-48
2023/05/31 09:42:14;;;;;;;7.93;3.90;;;21.90;70.80;;;;;;5034432;28;20080;-51
2023/05/31 09:45:00;;;;;;;11.60;4.68;;;22.20;70.40;;;;;;5015275;28;20049;-54
2023/05/31 09:47:47;;;;;;;7.20;3.70;;;22.50;69.90;;;;;;5035759;28;20037;-50
2023/05/31 09:50:33;;;;;;;6.20;3.70;;;22.60;68.10;;;;;;5014040;28;20402;-47
2023/05/31 09:53:19;;;;;;;6.55;3.97;;;22.30;67.60;;;;;;5013207;28;20554;-52
2023/05/31 09:56:17;;;;;;;7.30;3.92;;;22.30;67.60;;;;;;5025965;28;20029;-49
2023/05/31 09:59:04;;;;;;;7.28;3.95;;;22.50;68.70;;;;;;5051641;28;20064;-51
2023/05/31 10:01:50;;;;;;;5.90;3.70;;;22.70;67.70;;;;;;5053739;28;20587;-49
2023/05/31 10:04:37;;;;;;;5.80;3.67;;;22.70;68.20;;;;;;5052336;28;20521;-47
2023/05/31 10:07:23;;;;;;;8.25;4.45;;;22.80;67.20;;;;;;5051720;28;20113;-49
2023/05/31 10:10:10;;;;;;;7.20;4.10;;;22.80;66.70;;;;;;5052316;28;20037;-49
2023/05/31 10:13:02;;;;;;;12.70;4.20;;;22.50;67.00;;;;;;5052468;28;20033;-49
2023/05/31 10:15:50;;;;;;;6.55;3.65;;;22.40;67.60;;;;;;5052427;28;20082;-50
2023/05/31 10:18:45;;;;;;;6.60;3.88;;;22.50;66.00;;;;;;5051661;28;20029;-50
2023/05/31 10:21:33;;;;;;;5.90;3.67;;;22.50;66.30;;;;;;5051233;28;20021;-50
2023/05/31 10:24:50;;;;;;;5.35;3.50;;;22.60;66.10;;;;;;5038695;28;20048;-51
2023/05/31 10:27:38;;;;;;;6.45;3.90;;;22.80;65.70;;;;;;5031875;28;20045;-51
2023/05/31 10:30:28;;;;;;;5.90;3.35;;;22.90;65.40;;;;;;5033176;28;20171;-50
2023/05/31 10:33:15;;;;;;;6.68;3.42;;;22.90;64.80;;;;;;5032966;28;20025;-49
2023/05/31 10:36:01;;;;;;;7.88;3.75;;;23.00;65.10;;;;;;5033775;28;20040;-50
2023/05/31 10:39:20;;;;;;;4.43;3.78;;;23.00;64.00;;;;;;5034537;28;20088;-51
2023/05/31 10:42:20;;;;;;;6.03;5.03;;;22.70;66.00;;;;;;5033131;28;20061;-51
2023/05/31 10:45:31;;;;;;;5.57;4.43;;;22.80;66.20;;;;;;5032383;28;20075;-49
2023/05/31 10:48:37;;;;;;;5.78;3.70;;;23.00;65.70;;;;;;5012798;28;20033;-47
2023/05/31 10:51:46;;;;;;;4.95;3.65;;;23.30;64.80;;;;;;5025379;28;20021;-50
2023/05/31 10:54:33;;;;;;;7.63;3.85;;;22.80;66.30;;;;;;5051834;28;20036;-50
2023/05/31 10:57:18;;;;;;;7.80;4.57;;;22.70;67.40;;;;;;5051454;28;20028;-50
2023/05/31 11:00:06;;;;;;;6.72;3.80;;;22.70;66.60;;;;;;5051461;28;20107;-50
2023/05/31 11:02:56;;;;;;;5.93;3.50;;;22.70;67.00;;;;;;5041558;28;20029;-55
2023/05/31 11:06:06;;;;;;;7.10;3.92;;;22.80;65.80;;;;;;5032871;28;20042;-49
2023/05/31 11:08:58;;;;;;;6.80;3.70;;;22.90;66.10;;;;;;5051487;28;20068;-55
2023/05/31 11:11:49;;;;;;;8.15;3.83;;;23.10;66.00;;;;;;5051893;28;20392;-51
2023/05/31 11:14:35;;;;;;;6.40;3.65;;;23.20;64.70;;;;;;5051860;28;20520;-50
2023/05/31 11:17:21;;;;;;;6.57;3.20;;;23.00;64.40;;;;;;5050380;28;20029;-50
2023/05/31 11:20:15;;;;;;;6.53;3.53;;;22.90;64.60;;;;;;5039367;28;20086;-48
2023/05/31 11:23:16;;;;;;;8.27;3.65;;;23.00;64.20;;;;;;5036087;28;20028;-49
2023/05/31 11:26:17;;;;;;;6.30;3.90;;;23.10;64.20;;;;;;5031715;28;20037;-54
2023/05/31 11:29:03;;;;;;;5.35;3.50;;;23.40;63.60;;;;;;5032186;28;20034;-48
2023/05/31 11:31:55;;;;;;;9.02;3.70;;;23.70;63.60;;;;;;5031632;28;20036;-52
2023/05/31 11:34:56;;;;;;;9.98;3.85;;;23.80;63.50;;;;;;5035943;28;20029;-49
2023/05/31 11:37:43;;;;;;;6.15;3.60;;;23.80;64.60;;;;;;5037190;28;20029;-49
2023/05/31 11:40:32;;;;;;;7.30;3.63;;;23.90;64.30;;;;;;5016181;28;20019;-48
2023/05/31 11:43:23;;;;;;;5.95;3.63;;;23.90;64.60;;;;;;5045136;28;20079;-47
2023/05/31 11:46:09;;;;;;;4.22;3.10;;;24.00;63.30;;;;;;5054531;28;20582;-49
2023/05/31 11:48:57;;;;;;;6.13;3.78;;;23.90;64.00;;;;;;5035538;28;20034;-53
2023/05/31 11:51:44;;;;;;;9.18;4.10;;;24.00;64.20;;;;;;5038966;28;20525;-47
2023/05/31 11:54:32;;;;;;;5.57;3.80;;;23.90;64.00;;;;;;5035870;28;20072;-50
2023/05/31 11:57:20;;;;;;;4.60;3.20;;;23.80;63.80;;;;;;5035444;28;20027;-51
2023/05/31 12:00:14;;;;;;;8.68;3.67;;;23.90;62.60;;;;;;5036088;28;20037;-49
2023/05/31 12:03:04;;;;;;;7.55;3.63;;;23.60;62.80;;;;;;5035261;28;20022;-51
2023/05/31 12:05:51;;;;;;;6.78;3.70;;;23.20;63.70;;;;;;5036157;28;20045;-51
2023/05/31 12:08:37;;;;;;;9.75;3.47;;;23.10;64.50;;;;;;5035380;28;20474;-48
2023/05/31 12:11:23;;;;;;;5.57;3.40;;;23.10;65.90;;;;;;5035312;28;20450;-48
2023/05/31 12:14:11;;;;;;;8.50;5.30;;;23.50;63.40;;;;;;5035484;28;20036;-52
2023/05/31 12:17:05;;;;;;;7.10;3.50;;;23.60;63.60;;;;;;5048828;28;20017;-50
2023/05/31 12:19:51;;;;;;;4.45;3.53;;;23.50;62.60;;;;;;5054318;28;20108;-50
2023/05/31 12:22:37;;;;;;;4.47;3.60;;;23.70;62.80;;;;;;5054145;28;20039;-49
2023/05/31 12:25:26;;;;;;;8.38;3.70;;;23.80;63.00;;;;;;5053878;28;20188;-50
2023/05/31 12:28:13;;;;;;;6.55;3.63;;;23.80;63.50;;;;;;5054308;28;20079;-53
2023/05/31 12:30:59;;;;;;;7.93;3.80;;;24.10;62.80;;;;;;5053535;28;20040;-51
2023/05/31 12:33:51;;;;;;;4.95;3.35;;;24.00;62.40;;;;;;5054472;28;20047;-50
2023/05/31 12:36:46;;;;;;;9.75;3.22;;;24.00;62.00;;;;;;5056332;28;20026;-49
2023/05/31 12:39:41;;;;;;;5.18;3.30;;;23.90;62.20;;;;;;5042765;28;20034;-51
2023/05/31 12:42:30;;;;;;;4.97;3.40;;;24.30;61.60;;;;;;5036446;28;20026;-48
2023/05/31 12:45:18;;;;;;;7.43;4.05;;;24.50;61.80;;;;;;5034458;28;20048;-52
2023/05/31 12:48:06;;;;;;;7.40;3.40;;;24.70;61.90;;;;;;5034755;28;20032;-49
2023/05/31 12:50:52;;;;;;;6.30;3.53;;;25.00;61.70;;;;;;5035452;28;20056;-49
2023/05/31 12:53:40;;;;;;;5.35;3.72;;;25.20;60.60;;;;;;5033513;28;20109;-49
2023/05/31 12:56:27;;;;;;;15.48;13.75;;;25.40;59.50;;;;;;5039082;28;20108;-49
2023/05/31 12:59:13;;;;;;;9.25;7.22;;;25.30;59.50;;;;;;5054115;28;20570;-51
2023/05/31 13:02:00;;;;;;;4.75;3.67;;;25.00;59.60;;;;;;5038292;28;20037;-51
2023/05/31 13:04:46;;;;;;;6.78;4.32;;;25.00;60.80;;;;;;5038928;28;20083;-48
2023/05/31 13:07:35;;;;;;;5.13;3.78;;;25.10;61.30;;;;;;5047649;28;20041;-54
2023/05/31 13:10:21;;;;;;;7.95;3.67;;;25.40;60.30;;;;;;5041284;28;20524;-50
2023/05/31 13:13:07;;;;;;;6.38;3.60;;;25.30;59.60;;;;;;5044280;28;20026;-52
2023/05/31 13:15:53;;;;;;;5.47;3.53;;;25.10;60.40;;;;;;5039736;28;20079;-50
2023/05/31 13:18:39;;;;;;;5.63;3.22;;;25.30;60.70;;;;;;5050501;28;20037;-46
2023/05/31 13:21:26;;;;;;;5.55;3.60;;;25.50;60.90;;;;;;5047898;28;20032;-50
2023/05/31 13:24:12;;;;;;;6.75;3.75;;;25.90;59.80;;;;;;5042014;28;20466;-48
2023/05/31 13:26:58;;;;;;;6.22;3.67;;;26.20;59.90;;;;;;5042199;28;20116;-50
2023/05/31 13:29:44;;;;;;;5.38;3.53;;;26.60;59.90;;;;;;5040615;28;20036;-48
2023/05/31 13:32:30;;;;;;;7.88;3.80;;;26.80;58.80;;;;;;5038325;28;20658;-49
2023/05/31 13:35:16;;;;;;;5.80;3.38;;;26.90;59.30;;;;;;5034595;28;20025;-49
2023/05/31 13:38:02;;;;;;;6.05;3.60;;;26.80;58.80;;;;;;5033498;28;20260;-50
2023/05/31 13:40:50;;;;;;;6.20;3.60;;;26.80;59.20;;;;;;5052142;28;20079;-48
2023/05/31 13:43:37;;;;;;;5.20;3.53;;;27.00;59.00;;;;;;5051385;28;20139;-49
2023/05/31 13:46:23;;;;;;;6.65;3.95;;;26.90;58.00;;;;;;5038320;28;20521;-48
2023/05/31 13:49:09;;;;;;;5.38;3.42;;;26.60;58.80;;;;;;5042269;28;20033;-50
2023/05/31 13:51:55;;;;;;;5.32;3.58;;;26.60;57.60;;;;;;5036182;28;20413;-50
2023/05/31 13:54:41;;;;;;;7.55;3.47;;;26.40;58.20;;;;;;5045897;28;20029;-48
2023/05/31 13:57:27;;;;;;;6.90;4.10;;;26.10;58.40;;;;;;5033172;28;20034;-47
2023/05/31 14:00:14;;;;;;;9.20;3.78;;;25.90;58.80;;;;;;5034499;28;20033;-51
2023/05/31 14:03:00;;;;;;;6.53;3.53;;;25.90;59.10;;;;;;5033843;28;20069;-47
2023/05/31 14:05:46;;;;;;;6.00;3.60;;;26.00;59.10;;;;;;5033157;28;20163;-50
2023/05/31 14:08:32;;;;;;;7.20;4.55;;;26.30;59.80;;;;;;5032815;28;20620;-47
2023/05/31 14:11:18;;;;;;;5.18;3.60;;;26.70;58.40;;;;;;5033125;28;20026;-46
2023/05/31 14:14:04;;;;;;;5.25;3.58;;;26.50;58.20;;;;;;5033160;28;20033;-46
2023/05/31 14:16:52;;;;;;;5.13;3.63;;;26.50;58.70;;;;;;5059524;28;20406;-48
2023/05/31 14:19:38;;;;;;;4.72;3.38;;;26.70;58.60;;;;;;5032889;28;20452;-49
2023/05/31 14:22:24;;;;;;;5.82;3.50;;;27.10;57.80;;;;;;5046456;28;20043;-46
2023/05/31 14:25:10;;;;;;;8.73;4.45;;;27.00;57.90;;;;;;5052468;28;20646;-51
2023/05/31 14:27:56;;;;;;;5.38;3.45;;;27.30;58.60;;;;;;5051660;28;20017;-49
2023/05/31 14:30:43;;;;;;;6.45;3.60;;;27.40;57.90;;;;;;5051125;28;20029;-50